Tiempo atmosférico en la estación meteorológica de Reinosa, Cantabria (875 m.)



Fecha
DESCASC
Temp. máxima en grados centígrados (hora)
DESCASC
Temp. mínima en grados centígrados (hora)
DESCASC
Temp. media en grados centígrados
DESCASC
Racha de viento máxima en m/sg (hora)
DESCASC
Velocidad máxima media en intervalos de 10 minutos(hora)
DESCASC
Precipitaciones diarias en mm
DESCASC
Precipitaciones de 00:00 a 06:00 en mm
DESCASC
Precipitaciones de 06:00 a 12:00 en mm
DESCASC
Precipitaciones de 12:00 a 18:00 en mm
DESCASC
Precipitaciones de 18:00 a 24:00 en mm
DESCASC
08-12-2019 7.4 (17:00) 1.2 (04:50) 4.3 5 (13:30) 3.06 (13:30) 0.4 0 0.1 0.3 0
07-12-2019 12.2 (14:40) -2.1 (08:10) 5 5 (16:40) 3.06 (16:50) 0 0 0 0 0
06-12-2019 10.8 (13:20) -3.3 (07:50) 3.8 5.83 (14:00) 3.89 (14:00) 0 0 0 0 0
05-12-2019 7.1 (15:10) -1 (-00:0) 3 11.67 (08:10) 6.94 (04:00) 0 0 0 0 0
04-12-2019 9.4 (13:30) -2.6 (-00:0) 3.4 13.33 (21:20) 7.22 (21:40) 0 0 0 0 0
03-12-2019 5 (14:00) -3.1 (-00:0) 1 10 (05:20) 6.11 (04:10) 0.2 0.1 0.1 0 0
02-12-2019 5.8 (12:00) 1.5 (00:00) 3.7 10 (11:00) 5.83 (05:00) 5 0.1 3.9 0.9 0.1
01-12-2019 8.7 (13:40) 3.2 (00:00) 5.9 7.78 (04:00) 5.28 (17:30) 6 0.2 0 0.8 5
30-11-2019 12.6 (12:00) 0 (00:00) 6.3 13.61 (09:00) 6.39 (11:40) 4.1 0 2 2.1 0
29-11-2019 13.1 (15:00) 3 (00:00) 8.1 8.61 (23:20) 5 (23:10) 0.2 0.1 0 0.1 0
28-11-2019 11.8 (15:10) 5.1 (00:00) 8.5 10.28 (11:50) 6.67 (11:50) 4.8 0 0 3.6 1.2
27-11-2019 9.6 (13:50) 6.4 (00:00) 8 15.83 (00:20) 9.17 (00:20) 0.8 0 0 0.8 0
26-11-2019 14.7 (15:00) 8.3 (00:00) 11.5 24.17 (16:20) 13.89 (16:20) 2.7 0 0.2 0 2.5
25-11-2019 13.8 (14:00) 5 (00:00) 9.4 12.22 (02:40) 6.11 (02:30) 0 0 0 0 0
24-11-2019 8.3 (13:00) 0.7 (00:00) 4.5 15.83 (19:30) 6.67 (17:40) 0.2 0 0 0 0.2
23-11-2019 8.1 (12:20) 0.7 (00:00) 4.4 16.39 (10:20) 9.44 (10:20) 7.1 5.7 0.2 1.2 0
22-11-2019 11.1 (16:20) 4.9 (00:00) 8 26.11 (10:00) 13.33 (09:50) 25.9 0.1 12.4 13.2 0.2
21-11-2019 9.2 (13:30) 4.4 (00:00) 6.8 10.56 (13:30) 5.56 (05:20) 0 0 0 0 0
20-11-2019 8 (13:00) -1.1 (-00:0) 3.4 11.94 (09:50) 7.22 (06:00) 0 0 0 0 0
19-11-2019 7.6 (15:50) -3.2 (-00:0) 2.2 5.83 (16:30) 2.78 (16:30) 0 0 0 0 0
18-11-2019 4.3 (13:40) 0.5 (00:00) 2.4 9.44 (04:00) 5.56 (03:40) 16.7 8.1 7.9 0.6 0.1
17-11-2019 6.6 (14:10) 0.5 (00:00) 3.5 9.17 (23:50) 5.83 (23:50) 7.2 0.3 0.3 0.1 6.5
16-11-2019 5.1 (13:50) -1.2 (-00:0) 1.9 7.22 (04:30) 3.89 (03:30) 0 0 0 0 0
15-11-2019 3.5 (15:00) -0.4 (00:00) 1.5 25.83 (09:20) 9.44 (08:00) 25.3 4.8 7 7.7 5.8
14-11-2019 6.1 (00:20) -0.5 (-00:0) 2.8 10.28 (03:50) 6.94 (03:50) 5.6 3.6 0 0.1 1.9
13-11-2019 9.5 (13:50) 2.8 (00:00) 6.1 13.33 (06:10) 6.11 (06:30) 12.2 8.5 3.6 0.1 0
12-11-2019 10.3 (13:50) 1.3 (00:00) 5.8 10.28 (20:40) 5.28 (20:30) 2.9 0 0.1 0.2 2.6
11-11-2019 9.1 (10:50) 2.4 (00:10) 5.8 16.39 (11:50) 11.11 (11:50) 5.9 0.1 1.2 3.2 1.4

Gráficas

Temp. máximas Temp. mínimas Temp. medias Precipitaciones Rachas de viento máximas Velocidades máximas media en intervalos de 10 minutos

Datos horarios

Fecha y hora oficial Temperatura (ºC) Velocidad del viento (km/h) Dirección del viento Racha (km/h) Dirección de racha Precipitación (mm) Presión (hPa) Tendencia (hPa) Humedad (%)
2019-12-10 23:00:00 3.7 4 Sudoeste 17 Sur 0 921.4 -1.7 90
2019-12-10 22:00:00 4.1 3 Sudoeste 11 Sur 0 921.7 -1.5 92
2019-12-10 21:00:00 3.9 5 Oeste 8 Sudoeste 0 922.4 -0.7 90
2019-12-10 20:00:00 4.5 3 Sur 17 Sur 0 923.1 -0.3 88
2019-12-10 19:00:00 4.9 10 Sur 18 Sudeste 0 923.2 -0.4 86
2019-12-10 18:00:00 4.8 13 Sur 22 Sudeste 0 923.1 -1.1 84
2019-12-10 17:00:00 5 14 Sudeste 21 Sudeste 0 923.4 -1.4 78
2019-12-10 16:00:00 7.7 10 Sur 17 Sur 0 923.6 -2.2 69
2019-12-10 15:00:00 8.5 5 Sudeste 15 Sudeste 0 924.2 -2.8 61
2019-12-10 14:00:00 8.4 5 Sudeste 11 Sudeste 0 924.8 -2.5 59
2019-12-10 13:00:00 6.8 0 Calma 13 Sudeste 0 925.8 -1.8 63
2019-12-10 12:00:00 5.2 4 Este 14 Sur 0 927 -0.9 66
2019-12-10 11:00:00 3.5 4 Sudoeste 10 Sudoeste 0 927.3 -0.6 77
2019-12-10 10:00:00 -0.4 6 Sudoeste 14 Oeste 0 927.6 -0.4 90
2019-12-10 09:00:00 -4.3 4 Oeste 8 Oeste 0 927.9 -0.3 93
2019-12-10 08:00:00 -3.6 6 Oeste 8 Noroeste 0 927.9 -0.7 93
2019-12-10 07:00:00 -3.2 3 Sudoeste 8 Oeste 0 928 -0.6 93
2019-12-10 06:00:00 -2.5 3 Oeste 7 Oeste 0 928.2 -1.2 93
2019-12-10 05:00:00 -3.3 3 Oeste 8 Noroeste 0 928.6 -1.2 92
2019-12-10 04:00:00 -3.2 6 Noroeste 9 Noroeste 0 928.6 -1.5 91
2019-12-10 03:00:00 -1.5 5 Oeste 13 Oeste 0 929.4 -0.6 91
2019-12-10 02:00:00 -0.9 0 Calma 9 Oeste 0 929.8 -0.1 90
2019-12-10 01:00:00 -0.4 2 Sudoeste 11 Oeste 0 930.1 0 90
2019-12-10 00:00:00 0.2 5 Oeste 9 Oeste 0 930 0 88
2019-12-09 23:00:00 2.7 3 Oeste 11 Sudoeste 0 929.9 0.1 84
2019-12-09 22:00:00 5.4 3 Oeste 24 Norte 0 930.1 0.9 78
2019-12-09 21:00:00 5.8 9 Norte 19 Norte 0 930 1.1 78
2019-12-09 20:00:00 6.2 13 Norte 22 Norte 0 929.8 1.2 78
2019-12-09 19:00:00 6.5 12 Norte 27 Noroeste 0 929.2 1.1 78
2019-12-09 18:00:00 6.5 14 Noroeste 37 Norte 0 928.9 0.9 77
2019-12-09 17:00:00 7.3 22 Norte 33 Noroeste 0 928.6 1 70
2019-12-09 16:00:00 8.4 8 Noroeste 37 Noroeste 0 928.1 1.4 60
2019-12-09 15:00:00 8.5 10 Noroeste 40 Noroeste 0 928 0.9 62
2019-12-09 14:00:00 9.3 18 Noroeste 52 Noroeste 0 927.6 0.8 57
2019-12-09 13:00:00 8.9 31 Noroeste 62 Noroeste 0 926.7 -0.1 55
2019-12-09 12:00:00 8.5 24 Noroeste 53 Noroeste 0 927.1 0.5 58
2019-12-09 11:00:00 8 34 Noroeste 63 Norte 0 926.8 0.4 61
2019-12-09 10:00:00 4.2 8 Sudeste 17 Sudeste 0 926.8 0.9 71
2019-12-09 09:00:00 1.1 2 Nordeste 16 Sur 0 926.6 1.1 83
2019-12-09 08:00:00 1.4 5 Sur 17 Sur 0 926.4 1.2 93
2019-12-09 07:00:00 -0.3 3 Sur 9 Sur 0 925.9 1.1 93
2019-12-09 06:00:00 -1.6 4 Oeste 10 Nordeste 0 925.5 0.6 93
2019-12-09 05:00:00 1.4 4 Sur 22 Este 0 925.2 0.2 93
2019-12-09 04:00:00 0.2 4 Sur 13 Sur 0 924.8 -0.4 94
2019-12-09 03:00:00 0.9 4 Sudoeste 12 Noroeste 0 924.9 0.1 94
2019-12-09 02:00:00 2 6 Oeste 13 Noroeste 0 925 0 93
2019-12-09 01:00:00 3.4 5 Sudoeste 11 Noroeste 0 925.2 0.5 93
2019-12-09 00:00:00 3.7 5 Noroeste 13 Oeste 0 924.8 0.8 94
2019-12-08 23:00:00 3.4 2 Sudoeste 8 Sur 0 925 0.5 93
2019-12-08 22:00:00 2.7 3 Oeste 8 Oeste 0 924.7 1 93
2019-12-08 21:00:00 4.2 0 Calma 11 Sur 0 924 1.2 93
2019-12-08 20:00:00 6.1 4 Sur 9 Sur 0 924.5 1.9 93
2019-12-08 19:00:00 6.9 0 Calma 6 Sur 0 923.7 1.4 92
2019-12-08 18:00:00 6.5 3 Sudoeste 11 Sudeste 0 922.8 0.9 91
2019-12-08 17:00:00 7.3 5 Sudeste 14 Sur 0 922.6 0.7 90
2019-12-08 16:00:00 7 8 Sur 13 Sudeste 0 922.3 0.2 90
2019-12-08 15:00:00 6.8 6 Sur 12 Sur 0 921.9 -0.6 90
2019-12-08 14:00:00 6.7 3 Sudeste 18 Sudeste 0.1 921.9 -0.9 90
2019-12-08 13:00:00 6.1 6 Sur 14 Sur 0.2 922.1 -0.1 93
2019-12-08 12:00:00 5.9 5 Sur 12 Sur 0.1 922.5 0.6 94
2019-12-08 11:00:00 4.4 4 Sudoeste 10 Oeste 0 922.8 0.8 94
2019-12-08 10:00:00 3.9 4 Oeste 7 Oeste 0 922.2 0 94
2019-12-08 09:00:00 2.8 4 Oeste 7 Oeste 0 921.9 0.1 94
2019-12-08 08:00:00 2.4 3 Oeste 8 Oeste 0 922 0.2 94
2019-12-08 07:00:00 2 5 Oeste 9 Oeste 0 922.2 -0.1 94
2019-12-08 06:00:00 1.9 4 Oeste 9 Oeste 0 921.8 -0.9 94
2019-12-08 05:00:00 1.4 5 Oeste 11 Oeste 0 921.8 -1.2 94
2019-12-08 04:00:00 1.7 6 Oeste 9 Oeste 0 922.3 -1.1 94
2019-12-08 03:00:00 2.4 6 Oeste 11 Noroeste 0 922.7 -0.8 94
2019-12-08 02:00:00 2.6 5 Oeste 13 Noroeste 0 923 -0.9 94
2019-12-08 01:00:00 2.8 6 Oeste 9 Oeste 0 923.4 -0.6 94
2019-12-08 00:00:00 2.6 0 Calma 6 Noroeste 0 923.5 -0.1 94
2019-12-07 23:00:00 2.1 2 Sudoeste 13 Sur 0 923.9 0.8 94
2019-12-07 22:00:00 2.5 3 Sudeste 13 Sur 0 924 1.2 94
2019-12-07 21:00:00 3.1 5 Sudoeste 14 Sur 0 923.6 1.5 94
2019-12-07 20:00:00 3.7 6 Sudoeste 13 Sudoeste 0 923.1 1.4 93
2019-12-07 19:00:00 4.5 5 Sur 14 Sur 0 922.8 1.2 91
2019-12-07 18:00:00 5.2 5 Sudoeste 12 Sudeste 0 922.1 0.4 84
2019-12-07 17:00:00 9.1 10 Sudeste 18 Sudeste 0 921.7 -0.5 68
2019-12-07 16:00:00 11.6 11 Sudeste 17 Sudeste 0 921.6 -1 52
2019-12-07 15:00:00 11.9 9 Sudeste 13 Sudeste 0 921.7 -1.5 50
2019-12-07 14:00:00 10.8 6 Este 13 Sudeste 0 922.2 -1.2 58
2019-12-07 13:00:00 10.4 2 Sur 5 Sur 0 922.6 -0.4 64
2019-12-07 12:00:00 7.7 0 Calma 6 Norte 0 923.2 0.3 77
2019-12-07 11:00:00 4.5 3 Oeste 8 Sudoeste 0 923.4 0.5 89
2019-12-07 10:00:00 1.7 4 Oeste 8 Oeste 0 923 0.6 94
2019-12-07 09:00:00 -0.4 4 Oeste 12 Oeste 0 922.9 1.2 94
2019-12-07 08:00:00 -1.9 3 Noroeste 11 Oeste 0 922.9 1.1 94
2019-12-07 07:00:00 -1.7 3 Noroeste 8 Oeste 0 922.4 0.4 94
2019-12-07 06:00:00 -0.7 8 Oeste 10 Oeste 0 921.7 -0.6 94
2019-12-07 05:00:00 -0.7 4 Oeste 12 Oeste 0 921.8 -0.6 94
2019-12-07 04:00:00 -0.6 3 Noroeste 9 Oeste 0 922 -0.5 94
2019-12-07 03:00:00 0.7 4 Oeste 8 Oeste 0 922.3 -0.6 94
2019-12-07 02:00:00 0.2 5 Noroeste 6 Noroeste 0 922.4 -0.1 94
2019-12-07 01:00:00 2.7 0 Calma 6 Oeste 0 922.5 0.3 94
2019-12-07 00:00:00 3 4 Oeste 9 Noroeste 0 922.9 1.2 94
2019-12-06 23:00:00 3 0 Calma 6 Oeste 0 922.5 1.4 93
2019-12-06 22:00:00 1.8 5 Noroeste 7 Noroeste 0 922.2 1 92
2019-12-06 21:00:00 4.1 3 Oeste 5 Oeste 0 921.7 1 90
2019-12-06 20:00:00 5.4 3 Noroeste 5 Norte 0 921.1 0.8 87
2019-12-06 19:00:00 5.9 4 Oeste 9 Sur 0 921.2 1.1 84
2019-12-06 18:00:00 5.9 0 Calma 13 Sudeste 0 920.7 0.4 78
2019-12-06 17:00:00 8.9 8 Sudeste 13 Sudeste 0 920.3 -0.6 71
2019-12-06 16:00:00 9.8 6 Sudeste 17 Sudeste 0 920.1 -1.5 66
2019-12-06 15:00:00 10.5 12 Sudeste 18 Sudeste 0 920.3 -1.8 65
2019-12-06 14:00:00 9.9 14 Sur 21 Sur 0 920.9 -1.6 64
2019-12-06 13:00:00 9.8 0 Calma 6 Sudeste 0 921.6 -0.9 64
2019-12-06 12:00:00 7.1 0 Calma 5 Noroeste 0 922.1 0.4 76
2019-12-06 11:00:00 2.9 3 Noroeste 7 Oeste 0 922.5 0.8 91
2019-12-06 10:00:00 -0.4 0 Calma 8 Sur 0 922.5 0.8 93
2019-12-06 09:00:00 -1.7 3 Sudoeste 7 Noroeste 0 921.7 0.1 93
2019-12-06 08:00:00 -2.6 2 Noroeste 5 Noroeste 0 921.7 0 93
2019-12-06 07:00:00 -2.5 0 Calma 10 Oeste 0 921.7 0.1 93
2019-12-06 06:00:00 -2 4 Sudoeste 7 Sudoeste 0 921.6 0.1 93
2019-12-06 05:00:00 -2.5 0 Calma 7 Oeste 0 921.7 0.2 92
2019-12-06 04:00:00 -1.9 3 Noroeste 6 Norte 0 921.6 -0.6 91
2019-12-06 03:00:00 -0.9 2 Noroeste 8 Oeste 0 921.5 -1.2 91
2019-12-06 02:00:00 -0.8 4 Oeste 13 Norte 0 921.5 -1.3 91
2019-12-06 01:00:00 -1.4 5 Noroeste 10 Noroeste 0 922.2 -0.3 92
2019-12-06 00:00:00 -0.4 4 Noroeste 8 Noroeste 0 922.7 -0.3 91
2019-12-05 23:00:00 1.4 4 Oeste 10 Sudoeste 0 922.8 0 90
2019-12-05 22:00:00 1.8 5 Oeste 9 Oeste 0 922.5 0.1 90
2019-12-05 21:00:00 3.4 4 Noroeste 12 Norte 0 923 1.2 87
2019-12-05 20:00:00 5.6 9 Norte 14 Norte 0 922.8 1.3 83
2019-12-05 19:00:00 5.9 5 Noroeste 16 Noroeste 0 922.4 0.9 86
2019-12-05 18:00:00 6.2 14 Noroeste 22 Norte 0 921.8 0.4 90
2019-12-05 17:00:00 6.5 12 Norte 17 Norte 0 921.5 0 87
2019-12-05 16:00:00 6.6 11 Norte 25 Norte 0 921.5 -0.3 88
2019-12-05 15:00:00 6.9 11 Noroeste 24 Noroeste 0 921.4 -0.7 86
2019-12-05 14:00:00 6.8 13 Norte 27 Noroeste 0 921.5 -0.2 86
2019-12-05 13:00:00 6.8 15 Norte 26 Norte 0 921.8 0.4 86
2019-12-05 12:00:00 6.3 5 Norte 23 Noroeste 0 922.1 1.4 87
2019-12-05 11:00:00 6.1 12 Norte 20 Nordeste 0 921.7 1.7 86
2019-12-05 10:00:00 6.2 8 Norte 20 Norte 0 921.4 2 83
2019-12-05 09:00:00 5.8 12 Norte 42 Nordeste 0 920.7 1.9 77
2019-12-05 08:00:00 5.6 12 Norte 37 Norte 0 920 2 78
2019-12-05 07:00:00 5.3 17 Norte 34 Norte 0 919.4 1.6 90
2019-12-05 06:00:00 5.6 19 Norte 33 Nordeste 0 918.8 1.2 91
2019-12-05 05:00:00 5.7 13 Noroeste 34 Noroeste 0 918 1.2 93
2019-12-05 04:00:00 5.5 25 Norte 36 Norte 0 917.8 1 92
2019-12-05 03:00:00 5.8 3 Norte 34 Noroeste 0 917.6 1.3 89
2019-12-05 02:00:00 5.7 18 Oeste 41 Oeste 0 916.8 0.9 87
2019-12-05 01:00:00 5.4 17 Oeste 39 Oeste 0 916.8 1 87
2019-12-05 00:00:00 5.2 21 Oeste 37 Noroeste 0 916.3 0.8 86
2019-12-04 23:00:00 4.9 24 Noroeste 45 Norte 0 915.9 0.9 78
2019-12-04 22:00:00 5 17 Noroeste 48 Noroeste 0 915.8 1.2 78
2019-12-04 21:00:00 4.7 22 Norte 40 Norte 0 915.5 1.1 76
2019-12-04 20:00:00 4.1 24 Norte 46 Noroeste 0 915 1.5 77
2019-12-04 19:00:00 4.3 16 Norte 28 Norte 0 914.6 1.6 75
2019-12-04 18:00:00 3.9 4 Este 16 Este 0 914.4 2 78
2019-12-04 17:00:00 5.4 5 Nordeste 23 Nordeste 0 913.5 0.9 65
2019-12-04 16:00:00 7.2 14 Este 24 Este 0 913 0.2 58
2019-12-04 15:00:00 8.5 11 Nordeste 21 Este 0 912.4 -0.8 56
2019-12-04 14:00:00 8.8 8 Nordeste 15 Nordeste 0 912.6 -0.9 56
2019-12-04 13:00:00 8.9 2 Sudeste 5 Este 0 912.8 -1.1 59
2019-12-04 12:00:00 4.8 0 Calma 7 Sur 0 913.2 0.4 76
2019-12-04 11:00:00 2.8 4 Oeste 9 Noroeste 0 913.5 1.5 86
2019-12-04 10:00:00 0 0 Calma 6 Oeste 0 913.9 1.8 93
2019-12-04 09:00:00 -2.4 5 Norte 8 Noroeste 0 912.8 0.4 92
2019-12-04 08:00:00 -2.1 4 Noroeste 9 Norte 0 912 -0.4 90
2019-12-04 07:00:00 -0.5 2 Norte 10 Norte 0 912.1 -1 87
2019-12-04 06:00:00 0.3 5 Nordeste 12 Este 0 912.4 -1 78
2019-12-04 05:00:00 1.4 3 Este 15 Sudeste 0 912.4 -1.5 72
2019-12-04 04:00:00 3.6 8 Sur 17 Sur 0 913.1 -1.4 65
2019-12-04 03:00:00 1.4 9 Sur 16 Sudeste 0 913.4 -2 78
2019-12-04 02:00:00 1 8 Sur 15 Sudeste 0 913.9 -1.5 82
2019-12-04 01:00:00 -1.4 4 Nordeste 11 Este 0 914.5 -0.8 88
2019-12-04 00:00:00 -1.7 5 Norte 15 Sudeste 0 915.4 0 87
2019-12-03 23:00:00 -0.2 12 Sudeste 19 Sudeste 0 915.4 0 86
2019-12-03 22:00:00 -2.6 6 Este 10 Este 0 915.3 0 91
2019-12-03 21:00:00 -2.2 2 Norte 5 Sudoeste 0 915.4 -0.1 90
2019-12-03 20:00:00 -1.8 3 Noroeste 5 Noroeste 0 915.4 0.5 89
2019-12-03 19:00:00 -0.1 3 Sur 8 Sudeste 0 915.3 -0.2 83
2019-12-03 18:00:00 0.8 0 Calma 15 Nordeste 0 915.5 -0.4 78
2019-12-03 17:00:00 2.9 8 Este 17 Este 0 914.9 -1.4 70
2019-12-03 16:00:00 4.3 9 Nordeste 20 Nordeste 0 915.5 -1.9 66
2019-12-03 15:00:00 4.2 10 Nordeste 20 Este 0 915.9 -2.7 63
2019-12-03 14:00:00 4.9 6 Nordeste 18 Nordeste 0 916.3 -2.8 66
2019-12-03 13:00:00 4.3 10 Nordeste 23 Nordeste 0 917.4 -1.8 69
2019-12-03 12:00:00 3.6 8 Nordeste 22 Norte 0.1 918.6 -0.8 65
2019-12-03 11:00:00 3.4 9 Norte 27 Noroeste 0 919.1 -0.4 70
2019-12-03 10:00:00 2 9 Norte 19 Nordeste 0 919.2 -0.3 77
2019-12-03 09:00:00 1.9 13 Norte 22 Norte 0 919.4 -0.1 78
2019-12-03 08:00:00 2 17 Norte 30 Noroeste 0 919.5 -0.6 82
2019-12-03 07:00:00 2.2 13 Noroeste 33 Noroeste 0 919.5 -1 83
2019-12-03 06:00:00 1.6 12 Norte 36 Norte 0 919.5 -1.4 85
2019-12-03 05:00:00 1.8 19 Norte 36 Norte 0.1 920.1 -0.9 90
2019-12-03 04:00:00 1.7 18 Noroeste 30 Noroeste 0 920.5 -1 88
2019-12-03 03:00:00 2.2 19 Noroeste 27 Norte 0 920.9 -0.8 83
2019-12-03 02:00:00 2 18 Noroeste 26 Norte 0 921 -1.1 90
2019-12-03 01:00:00 1.9 16 Noroeste 23 Noroeste 0 921.5 -1 90
2019-12-03 00:00:00 1.9 16 Noroeste 24 Norte 0 921.7 -0.9 86
2019-12-02 23:00:00 1.7 15 Noroeste 28 Norte 0.1 922.1 -0.4 87
2019-12-02 22:00:00 2.5 14 Norte 30 Norte 0 922.5 0.5 78
2019-12-02 21:00:00 2.3 18 Noroeste 28 Norte 0 922.6 1.3 84
2019-12-02 20:00:00 2.3 15 Noroeste 29 Noroeste 0 922.5 1.3 85
2019-12-02 19:00:00 2.6 10 Norte 29 Norte 0 922 0.9 78
2019-12-02 18:00:00 3.1 13 Norte 29 Norte 0 921.3 0.8 78
2019-12-02 17:00:00 3.3 16 Norte 36 Norte 0 921.2 1.1 86
2019-12-02 16:00:00 3.3 14 Nordeste 34 Norte 0.3 921.1 0.6 93
2019-12-02 15:00:00 3.7 13 Norte 28 Nordeste 0.3 920.5 -0.3 93
2019-12-02 14:00:00 4.5 13 Norte 35 Norte 0.3 920.1 -0.6 85
2019-12-02 13:00:00 4.6 15 Norte 33 Norte 0 920.5 0.7 86
2019-12-02 12:00:00 5.7 14 Nordeste 32 Norte 0.4 920.8 1.4 90
2019-12-02 11:00:00 4.7 15 Nordeste 36 Nordeste 0.4 920.7 1.8 91
2019-12-02 10:00:00 4.5 17 Norte 32 Nordeste 0.9 919.8 1.6 89
2019-12-02 09:00:00 4.2 7 Nordeste 23 Nordeste 1.2 919.4 1.7 90
2019-12-02 08:00:00 4.2 5 Nordeste 23 Nordeste 0.5 918.9 1.6 89
2019-12-02 07:00:00 4.4 8 Nordeste 23 Nordeste 0.5 918.2 1 93
2019-12-02 06:00:00 4.3 10 Norte 28 Noroeste 0 917.7 0.5 91
2019-12-02 05:00:00 3.5 21 Noroeste 30 Noroeste 0 917.3 0.5 91
2019-12-02 04:00:00 3.6 17 Noroeste 30 Norte 0 917.2 0.5 88
2019-12-02 03:00:00 3.8 15 Noroeste 25 Noroeste 0 917.2 0.8 91
2019-12-02 02:00:00 3.5 6 Noroeste 20 Noroeste 0 916.8 0.5 90
2019-12-02 01:00:00 3.6 13 Noroeste 22 Noroeste 0.1 916.7 0.9 91
2019-12-02 00:00:00 3.8 5 Nordeste 18 Nordeste 0 916.4 1.2 94
2019-12-01 23:00:00 3.6 11 Nordeste 19 Nordeste 0.7 916.3 1.9 93
2019-12-01 22:00:00 3.4 2 Oeste 14 Noroeste 1.7 915.8 2.1 89
2019-12-01 21:00:00 3.7 8 Noroeste 15 Noroeste 1.8 915.2 1.8 88
2019-12-01 20:00:00 4.4 0 Calma 9 Norte 0.3 914.4 1.9 86
2019-12-01 19:00:00 4.3 4 Noroeste 18 Noroeste 0.5 913.7 1.5 84
2019-12-01 18:00:00 4.8 7 Noroeste 24 Noroeste 0.8 913.4 1.6 86
2019-12-01 17:00:00 6.8 6 Norte 19 Norte 0 912.5 0.7 74
2019-12-01 16:00:00 7.2 15 Noroeste 24 Norte 0 912.2 0.2 74
2019-12-01 15:00:00 8.1 15 Noroeste 27 Noroeste 0 911.8 -0.2 69
2019-12-01 14:00:00 8.2 13 Norte 23 Norte 0 911.8 0.1 68
2019-12-01 13:00:00 7.4 5 Sudeste 12 Sur 0 912 0.9 77
2019-12-01 12:00:00 7.2 0 Calma 9 Sur 0 912 1.3 76
2019-12-01 11:00:00 6.7 0 Calma 13 Sudeste 0 911.7 1.5 78
2019-12-01 10:00:00 5.8 6 Sudeste 22 Sudoeste 0 911.1 1.3 82
2019-12-01 09:00:00 5.4 11 Sur 20 Sur 0 910.7 0.9 83
2019-12-01 08:00:00 4.8 5 Sudeste 15 Sudeste 0 910.2 0.1 90
2019-12-01 07:00:00 4.6 7 Sur 11 Sur 0 909.8 -0.4 90
2019-12-01 06:00:00 4.3 7 Sur 14 Sur 0 909.8 -0.7 91
2019-12-01 05:00:00 4 6 Sudeste 26 Sudeste 0.2 910.1 -0.7 88
2019-12-01 04:00:00 3.9 18 Sur 28 Sur 0 910.2 -1 84
2019-12-01 03:00:00 3.9 11 Sur 23 Sur 0 910.5 -1.5 78
2019-12-01 02:00:00 3.7 13 Sur 21 Sur 0 910.8 -1.4 78
2019-12-01 01:00:00 4.7 13 Sudoeste 25 Oeste 0 911.2 -1.3 72
2019-12-01 00:00:00 4.9 9 Sudoeste 23 Oeste 0 912 -0.8 71
2019-11-30 23:00:00 1.3 0 Calma 13 Sur 0 912.2 -1 94
2019-11-30 22:00:00 1.4 0 Calma 12 Noroeste 0 912.5 -0.7 94
2019-11-30 21:00:00 1.4 2 Oeste 9 Oeste 0 912.8 -0.1 93
2019-11-30 20:00:00 1.7 4 Oeste 9 Norte 0 913.2 0.5 93
2019-11-30 19:00:00 3.6 5 Noroeste 7 Noroeste 0 913.2 1.4 91
2019-11-30 18:00:00 6.1 4 Sudeste 15 Nordeste 0 912.9 -0.1 83
2019-11-30 17:00:00 7.7 11 Este 21 Este 0 912.7 0 83
2019-11-30 16:00:00 8.2 12 Sudoeste 44 Sur 0.3 911.8 -1.2 57
2019-11-30 15:00:00 7.9 11 Este 22 Este 0.3 913 -0.1 93
2019-11-30 14:00:00 7.7 13 Este 21 Este 0.9 912.7 -0.3 93
2019-11-30 13:00:00 8.2 8 Nordeste 33 Este 0.6 913 -0.5 91
2019-11-30 12:00:00 10.1 12 Sur 43 Sudoeste 0.2 913.1 -0.4 78
2019-11-30 11:00:00 12.1 22 Sur 46 Sur 0.3 913 -0.3 83
2019-11-30 10:00:00 11.6 13 Sudoeste 43 Sudoeste 0.2 913.5 -0.4 85
2019-11-30 09:00:00 11.3 21 Sudoeste 49 Sur 1 913.5 -0.9 86
2019-11-30 08:00:00 11.1 11 Sur 44 Sur 0.2 913.3 -1.6 86
2019-11-30 07:00:00 11.3 6 Sudeste 38 Sudoeste 0.1 913.9 -1.8 84
2019-11-30 06:00:00 10.8 10 Sur 37 Sur 0 914.4 -2.2 85
2019-11-30 05:00:00 9.7 10 Sur 40 Sudeste 0 914.9 -1.9 89
2019-11-30 04:00:00 9.3 10 Sudoeste 25 Sudoeste 0 915.7 -1.8 87
2019-11-30 03:00:00 9.5 12 Sudoeste 26 Sudoeste 0 916.6 -1.4 79
2019-11-30 02:00:00 9.5 0 Calma 21 Sudoeste 0 916.8 -1.5 74
2019-11-30 01:00:00 9.6 14 Sudoeste 25 Sudoeste 0 917.5 -1.5 73
2019-11-30 00:00:00 4.8 4 Oeste 31 Sur 0 918 -0.8 78
2019-11-29 23:00:00 8.1 17 Sudeste 25 Sudeste 0 918.3 -0.6 78
2019-11-29 22:00:00 3.8 3 Noroeste 8 Oeste 0 919 0.6 84
2019-11-29 21:00:00 3.8 6 Noroeste 14 Oeste 0 918.8 0.6 78
2019-11-29 20:00:00 5.2 3 Norte 10 Noroeste 0 918.9 0.8 83
2019-11-29 19:00:00 7.8 0 Calma 22 Sur 0 918.4 0.4 73
2019-11-29 18:00:00 9.8 4 Sur 17 Sur 0 918.2 0 62
2019-11-29 17:00:00 11.3 9 Sudoeste 23 Sur 0 918.1 -0.5 57
2019-11-29 16:00:00 12.6 11 Sur 21 Sur 0 918 -1.3 55
2019-11-29 15:00:00 12.9 12 Sur 18 Sur 0 918.2 -1.3 55
2019-11-29 14:00:00 12.4 9 Sudeste 14 Sudeste 0 918.6 -1 55
2019-11-29 13:00:00 11.9 6 Sudeste 19 Sur 0.1 919.3 0.3 57
2019-11-29 12:00:00 11 8 Sur 17 Sudeste 0 919.5 0.9 70
2019-11-29 11:00:00 9.4 5 Este 8 Este 0 919.6 1.7 84
2019-11-29 10:00:00 7.7 5 Noroeste 7 Noroeste 0 919 1.7 91
2019-11-29 09:00:00 7.3 2 Noroeste 5 Noroeste 0 918.6 2 94
2019-11-29 08:00:00 7.7 2 Sudoeste 5 Noroeste 0 917.9 1.9 94
2019-11-29 07:00:00 8 2 Oeste 5 Noroeste 0 917.3 1.6 94
2019-11-29 06:00:00 8.1 2 Sudoeste 4 Sudoeste 0 916.6 1.6 94
2019-11-29 05:00:00 8 2 Nordeste 4 Sudoeste 0 916 1.5 94
2019-11-29 04:00:00 8.1 0 Calma 4 Norte 0 915.7 1.6 94
2019-11-29 03:00:00 8.3 3 Sur 5 Sur 0 915 1.4 94
2019-11-29 02:00:00 8.4 2 Noroeste 9 Oeste 0.1 914.5 2.4 94
2019-11-29 01:00:00 8.7 3 Sudeste 8 Sur 0 914.1 2.2 93
2019-11-29 00:00:00 9.2 6 Este 18 Oeste 0 913.6 1.9 89
2019-11-28 23:00:00 10.5 12 Oeste 24 Oeste 0.1 912.1 0.6 76
2019-11-28 22:00:00 9.9 5 Sur 26 Sudoeste 0.2 911.9 1 84
2019-11-28 21:00:00 10 12 Sudoeste 27 Sudoeste 0.1 911.7 1 78
2019-11-28 20:00:00 9.8 15 Sudoeste 32 Oeste 0.6 911.5 0.3 83
2019-11-28 19:00:00 10 10 Sudoeste 31 Sudoeste 0.2 910.9 0.5 86
2019-11-28 18:00:00 7.9 4 Nordeste 15 Este 0.8 910.7 0.4 94
2019-11-28 17:00:00 8.2 10 Este 20 Nordeste 2.6 911.2 0.6 94
2019-11-28 16:00:00 9.9 5 Sur 29 Sudoeste 0.1 910.4 -0.6 79
2019-11-28 15:00:00 11.5 15 Sudoeste 31 Sudoeste 0.1 910.3 -1.4 77
2019-11-28 14:00:00 11 11 Sur 29 Sudeste 0 910.6 -1.4 78
2019-11-28 13:00:00 10.4 11 Sudeste 35 Sudeste 0 911 -0.7 84
2019-11-28 12:00:00 10.1 23 Sudeste 37 Sur 0 911.7 0.3 86
2019-11-28 11:00:00 9.9 16 Sur 36 Sur 0 912 1.5 83
2019-11-28 10:00:00 7.5 2 Norte 11 Oeste 0 911.7 1.4 87
2019-11-28 09:00:00 5.1 4 Nordeste 20 Sur 0 911.4 1.6 86
2019-11-28 08:00:00 8.5 8 Sur 25 Sudoeste 0 910.5 0.8 83
2019-11-28 07:00:00 8.9 13 Sudoeste 32 Oeste 0 910.3 0.7 78
2019-11-28 06:00:00 8.5 11 Sudoeste 27 Sur 0 909.8 0.5 78
2019-11-28 05:00:00 8.2 14 Sudoeste 27 Sudoeste 0 909.7 0.2 78
2019-11-28 04:00:00 8.2 12 Sudoeste 31 Sudoeste 0 909.6 0.1 82
2019-11-28 03:00:00 8.3 14 Sudoeste 28 Sudoeste 0 909.3 0.1 82
2019-11-28 02:00:00 8 6 Sudoeste 19 Sudoeste 0 909.5 0 78
2019-11-28 01:00:00 8.1 7 Sur 26 Sur 0 909.5 0.2 80
2019-11-28 00:00:00 8 8 Sudoeste 25 Sur 0 909.2 0.1 78
2019-11-27 23:00:00 8.4 11 Sudoeste 22 Sudoeste 0 909.5 0.5 78
2019-11-27 22:00:00 8.1 11 Sudoeste 28 Sudoeste 0 909.3 0.5 78
2019-11-27 21:00:00 8.5 12 Sudoeste 24 Sudoeste 0 909.1 0.6 70
2019-11-27 20:00:00 8.9 10 Sur 24 Sudoeste 0 909 0.8 68
2019-11-27 19:00:00 9 5 Sudoeste 23 Sudoeste 0 908.8 1 69
2019-11-27 18:00:00 8.4 9 Sur 18 Sur 0 908.5 0.6 78
2019-11-27 17:00:00 8.3 10 Sur 19 Sur 0.1 908.2 0.4 83
2019-11-27 16:00:00 8.5 0 Calma 13 Sudoeste 0.4 907.8 -0.4 85
2019-11-27 15:00:00 8.8 10 Sudoeste 25 Sudoeste 0.3 907.9 -0.9 79
2019-11-27 14:00:00 9.1 14 Sudoeste 33 Sudoeste 0 907.8 -1 77
2019-11-27 06:00:00 7.2 18 Sudoeste 43 Sudoeste 0 905.6 1.1 74
2019-11-27 05:00:00 6.7 16 Sudoeste 41 Sur 0 905.3 0.8 74
2019-11-27 04:00:00 7.1 18 Sudoeste 40 Sudoeste 0 905 0.9 69
2019-11-27 03:00:00 8.1 22 Sur 39 Sur 0 904.5 1.8 62
2019-11-27 02:00:00 7.4 17 Sudeste 28 Sudeste 0 904.5 2 63
2019-11-27 01:00:00 8.7 16 Oeste 57 Oeste 0 904.1 1.5 54
2019-11-27 00:00:00 9 31 Oeste 65 Sudoeste 0 902.7 0.2 55
2019-11-26 23:00:00 9.7 25 Sudoeste 58 Sudoeste 0.1 902.5 1 62
2019-11-26 22:00:00 10.5 29 Sudoeste 55 Sudoeste 0.2 902.6 1.3 65
2019-11-26 21:00:00 10.2 17 Sudoeste 57 Sudoeste 1.9 902.5 2 78
2019-11-26 20:00:00 11.1 34 Sudoeste 74 Sur 0.3 901.5 1 75
2019-11-26 19:00:00 12.5 32 Sudoeste 80 Sur 0 901.3 -0.3 62
2019-11-26 18:00:00 13.2 45 Sudoeste 82 Sudoeste 0 900.5 -2.3 61
2019-11-26 17:00:00 13.7 39 Sudoeste 87 Sudoeste 0 900.5 -3.8 63
2019-11-26 16:00:00 14.2 43 Sudoeste 78 Sudoeste 0 901.6 -4.1 61
2019-11-26 15:00:00 14.6 45 Sudoeste 79 Sudoeste 0 902.8 -4 58
2019-11-26 14:00:00 14.1 35 Sudoeste 84 Sudoeste 0 904.3 -3.9 58
2019-11-26 13:00:00 12.8 30 Sudoeste 64 Sudoeste 0 905.7 -3.6 77
2019-11-26 12:00:00 12 26 Sudoeste 55 Sudoeste 0 906.8 -2.5 83
2019-11-26 11:00:00 10.9 15 Sur 39 Sur 0 908.2 -1.5 86
2019-11-26 10:00:00 9.6 13 Sudeste 37 Sur 0.2 909.3 -0.8 90
2019-11-26 09:00:00 9.6 13 Sur 33 Sur 0 909.3 -1.1 92
2019-11-26 08:00:00 8.8 14 Sur 26 Sur 0 909.7 -0.5 91
2019-11-26 07:00:00 9.2 13 Sudeste 28 Sur 0 910.1 -0.1 90
2019-11-26 06:00:00 9.6 10 Sur 26 Sudeste 0 910.4 0.3 79
2019-11-26 05:00:00 9 14 Sur 32 Sudeste 0 910.2 -1.1 82
2019-11-26 04:00:00 9.5 12 Sudeste 52 Sur 0 910.2 -1.5 73
2019-11-26 03:00:00 9.9 30 Sur 58 Sudoeste 0 910.1 -1.4 69
2019-11-26 02:00:00 9.2 18 Sudoeste 39 Sudoeste 0 911.3 -0.4 74
2019-11-26 01:00:00 9.2 10 Sudoeste 38 Sur 0 911.7 -0.3 73
2019-11-26 00:00:00 8.9 17 Sur 40 Sur 0 911.5 -0.3 77
2019-11-25 23:00:00 8.6 3 Sur 22 Sur 0 911.7 -0.3 75
2019-11-25 22:00:00 5.8 4 Noroeste 8 Oeste 0 912 -0.1 87
2019-11-25 21:00:00 7.8 3 Oeste 10 Noroeste 0 911.8 0.1 84
2019-11-25 20:00:00 7.7 6 Noroeste 12 Sur 0 912 0.3 86
2019-11-25 19:00:00 9.5 4 Sudoeste 21 Sur 0 912.1 0.8 70
2019-11-25 18:00:00 10.6 8 Sudoeste 22 Sudoeste 0 911.7 0.4 66
2019-11-25 17:00:00 11.1 6 Sudoeste 26 Sudoeste 0 911.7 0.4 59
2019-11-25 16:00:00 11.6 10 Sudoeste 24 Sudoeste 0 911.3 -0.3 55
2019-11-25 15:00:00 12.2 12 Sudoeste 27 Sudoeste 0 911.3 -0.2 57
2019-11-25 14:00:00 13.4 13 Sudoeste 25 Sur 0 911.3 -0.3 58
2019-11-25 13:00:00 13.2 7 Sudoeste 19 Sudoeste 0 911.6 0.3 58
2019-11-25 12:00:00 12 11 Oeste 23 Sur 0 911.5 0.8 66
2019-11-25 11:00:00 10.4 13 Sur 28 Sur 0 911.6 1.3 75
2019-11-25 10:00:00 9.7 9 Sudoeste 27 Sudoeste 0 911.3 1.3 75
2019-11-25 09:00:00 8.6 5 Sudoeste 29 Sudoeste 0 910.7 1.2 78
2019-11-25 08:00:00 8.9 10 Sudoeste 26 Sudoeste 0 910.3 0.9 78
2019-11-25 07:00:00 8.3 5 Sudoeste 24 Noroeste 0 910 1.1 86
2019-11-25 06:00:00 8.1 2 Noroeste 24 Sur 0 909.5 0.9 83
2019-11-25 05:00:00 8.4 12 Sur 28 Sur 0 909.4 0.3 84
2019-11-25 04:00:00 8.2 10 Sur 37 Sur 0 908.9 -0.3 79
2019-11-25 03:00:00 8.7 17 Sur 44 Sur 0 908.6 -0.4 78
2019-11-25 02:00:00 6.6 14 Sudeste 30 Sur 0 909.1 -0.4 91
2019-11-25 01:00:00 8 15 Sur 36 Sur 0 909.2 -0.5 85
2019-11-25 00:00:00 6.9 21 Sur 35 Sur 0 909 -0.8 87
2019-11-24 23:00:00 7.2 9 Sudoeste 27 Sur 0 909.5 -1.1 86
2019-11-24 22:00:00 6.7 17 Sur 33 Sur 0 909.7 0 86
2019-11-24 21:00:00 6.8 17 Sudoeste 40 Sur 0.2 909.8 0.1 82
2019-11-24 20:00:00 7.5 14 Sudoeste 57 Sur 0 910.6 0.7 72
2019-11-24 19:00:00 7.3 15 Sudoeste 35 Sur 0 909.7 -0.5 70
2019-11-24 18:00:00 6.3 19 Sudoeste 44 Sudoeste 0 909.7 -0.3 75
2019-11-24 17:00:00 6.8 21 Sudoeste 44 Sudoeste 0 909.9 -0.9 70
2019-11-24 16:00:00 7.3 17 Sudoeste 37 Sudoeste 0 910.2 -1.2 68
2019-11-24 15:00:00 6.9 17 Sur 37 Sur 0 910 -2.2 62
2019-11-24 14:00:00 6.9 17 Sur 32 Sur 0 910.8 -2 71
2019-11-24 13:00:00 8.3 15 Sur 30 Sudeste 0 911.4 -1.5 71
2019-11-24 12:00:00 5.8 12 Sudeste 22 Sudeste 0 912.2 -0.1 77
2019-11-24 11:00:00 4.3 11 Sudeste 22 Sudeste 0 912.8 1 83
2019-11-24 10:00:00 2.4 0 Calma 8 Sudoeste 0 912.9 1.5 93
2019-11-24 09:00:00 1.3 0 Calma 7 Nordeste 0 912.3 1.1 92
2019-11-24 08:00:00 1.5 3 Sudoeste 14 Sur 0 911.8 0.8 90
2019-11-24 07:00:00 1.4 5 Sur 11 Sur 0 911.4 0.9 92
2019-11-24 06:00:00 1.9 2 Oeste 6 Noroeste 0 911.2 1.4 91
2019-11-24 05:00:00 1.9 4 Noroeste 9 Sur 0 911 1.4 90
2019-11-24 04:00:00 2.8 5 Sur 9 Sur 0 910.5 0.9 86
2019-11-24 03:00:00 2.3 5 Sur 9 Sur 0 909.8 0.5 90
2019-11-24 02:00:00 3.2 0 Calma 12 Sudeste 0 909.6 0.9 88
2019-11-24 01:00:00 3.2 5 Sur 11 Sur 0 909.6 1.3 87
2019-11-24 00:00:00 2.4 5 Sur 10 Sur 0 909.3 1.6 89
2019-11-23 23:00:00 1.4 0 Calma 9 Sur 0 908.7 1.8 88
2019-11-23 22:00:00 1.7 6 Sudoeste 14 Sudoeste 0 908.3 2.1 84
2019-11-23 21:00:00 3.6 4 Sur 21 Norte 0 907.7 2.5 78
2019-11-23 20:00:00 4.2 4 Norte 12 Noroeste 0 906.9 2.3 76
2019-11-23 19:00:00 4.6 0 Calma 24 Noroeste 0 906.2 2.1 76
2019-11-23 18:00:00 5.4 7 Norte 24 Noroeste 0 905.2 1.7 72
2019-11-23 17:00:00 5.6 13 Noroeste 18 Noroeste 0.1 904.6 1.7 78
2019-11-23 16:00:00 5.7 3 Sudoeste 16 Norte 0.3 904.1 1.8 82
2019-11-23 15:00:00 5.7 3 Sudoeste 28 Noroeste 0.6 903.5 2.1 78
2019-11-23 14:00:00 5.2 16 Noroeste 28 Noroeste 0.2 902.9 2.5 78
2019-11-23 13:00:00 5.4 23 Noroeste 50 Noroeste 0 902.3 3.2 72
2019-11-23 12:00:00 7.4 25 Noroeste 39 Noroeste 0.1 901.4 4.3 59
2019-11-23 11:00:00 5.5 20 Noroeste 59 Noroeste 0 900.4 4.8 74
2019-11-23 10:00:00 5.1 24 Noroeste 42 Noroeste 0 899.1 5.4 67
2019-11-23 09:00:00 4.6 27 Noroeste 44 Noroeste 0 897.1 5.1 75
2019-11-23 08:00:00 5.2 17 Norte 32 Norte 0 895.6 4.6 68
2019-11-23 07:00:00 5.3 3 Nordeste 28 Noroeste 0.1 893.7 3.9 80
2019-11-23 06:00:00 4.2 11 Sudeste 24 Sudeste 2.5 892 3.5 89
2019-11-23 05:00:00 4.7 0 Calma 15 Sudoeste 2.9 891 3.3 87
2019-11-23 04:00:00 5.7 6 Oeste 24 Sudoeste 0.3 889.8 2.5 78
2019-11-23 03:00:00 5.8 16 Sudoeste 36 Sudoeste 0 888.5 1.6 78
2019-11-23 02:00:00 7 17 Sudoeste 31 Sudoeste 0 887.7 0.7 73
2019-11-23 01:00:00 7.6 11 Sudoeste 40 Sudoeste 0 887.3 0.4 73
2019-11-23 00:00:00 7.6 18 Sudoeste 48 Sudoeste 0 886.9 -0.1 76
2019-11-22 23:00:00 7.3 22 Sudoeste 58 Sudoeste 0.1 887 0.2 82
2019-11-22 22:00:00 7.1 27 Sudoeste 57 Sudoeste 0 886.9 -0.2 78
2019-11-22 21:00:00 7.2 31 Sudoeste 62 Sudoeste 0 887 0.1 76
2019-11-22 20:00:00 7.6 27 Sudoeste 56 Sudoeste 0.1 886.8 -0.2 77
2019-11-22 19:00:00 8.2 18 Sudoeste 51 Oeste 0 887.1 0.9 69
2019-11-22 18:00:00 7.9 9 Sudoeste 53 Sudoeste 2 886.9 0.6 78
2019-11-22 17:00:00 9.8 23 Oeste 59 Sur 0.1 887 -0.4 73
2019-11-22 16:00:00 10.8 29 Sudoeste 71 Sur 0.2 886.2 -2.6 75
2019-11-22 15:00:00 10.2 36 Sudoeste 89 Sudoeste 0.7 886.3 -4.4 78
2019-11-22 14:00:00 9 34 Sur 77 Sur 5.6 887.4 -3.9 88
2019-11-22 13:00:00 7.8 32 Sudoeste 69 Sur 4.6 888.8 -3.1 89
2019-11-22 12:00:00 7.7 35 Sur 76 Sudoeste 2.7 890.7 -4 86
2019-11-22 11:00:00 7.3 33 Sur 68 Sudeste 1.7 891.3 -3.8 86
2019-11-22 10:00:00 6.4 41 Sur 94 Sur 2.2 891.9 -4.1 87
2019-11-22 09:00:00 5.4 30 Sur 71 Sudoeste 4.1 894.7 -3.2 83
2019-11-22 08:00:00 6.3 22 Sur 61 Sudeste 1.5 895.1 -3.5 82
2019-11-22 07:00:00 6.2 15 Sur 46 Sur 0.2 896 -3.8 78
2019-11-22 06:00:00 6.2 23 Sur 55 Sur 0.1 897.9 -3 78
2019-11-22 05:00:00 6.5 25 Sudoeste 55 Sudoeste 0 898.6 -3.3 74
2019-11-22 04:00:00 5.8 26 Sudoeste 53 Sudoeste 0 899.8 -2.8 78
2019-11-22 03:00:00 5 19 Sudoeste 42 Sudoeste 0 900.9 -2.2 84
2019-11-22 02:00:00 6 20 Sur 40 Sudoeste 0 901.9 -2.2 73
2019-11-22 01:00:00 6.4 15 Sudoeste 58 Sudoeste 0 902.6 -1.8 67
2019-11-22 00:00:00 5.4 4 Sudeste 26 Sudeste 0 903.1 -1.6 69
2019-11-21 23:00:00 5.6 4 Sudoeste 17 Sudoeste 0 904.1 -0.7 69
2019-11-21 22:00:00 5 7 Sudeste 17 Este 0 904.4 -0.5 70
2019-11-21 21:00:00 4.8 7 Sudeste 14 Sudeste 0 904.7 0 69
2019-11-21 20:00:00 6.1 8 Oeste 21 Oeste 0 904.8 0 61
2019-11-21 19:00:00 5.1 9 Oeste 16 Sudoeste 0 904.9 0.4 63
2019-11-21 18:00:00 6 9 Sudoeste 17 Sudoeste 0 904.7 0.5 56
2019-11-21 17:00:00 7.1 5 Oeste 16 Sudeste 0 904.8 1 51
2019-11-21 16:00:00 8.6 6 Sudoeste 31 Sudoeste 0 904.5 0.4 46
2019-11-21 15:00:00 8.6 19 Sudoeste 33 Sudoeste 0 904.2 -0.4 47
2019-11-21 14:00:00 9 16 Sudoeste 38 Oeste 0 903.8 -0.7 47
2019-11-21 13:00:00 8.8 13 Sudoeste 25 Sudoeste 0 904.1 -0.3 43
2019-11-21 12:00:00 8.8 7 Sudoeste 21 Sudoeste 0 904.6 0.1 48
2019-11-21 11:00:00 7.6 6 Sudoeste 22 Sudoeste 0 904.5 0.6 65
2019-11-21 10:00:00 5.3 7 Sudoeste 23 Sudoeste 0 904.4 0.4 78
2019-11-21 09:00:00 4.7 0 Calma 27 Oeste 0 904.5 0.7 80
2019-11-21 08:00:00 4.6 4 Sudoeste 18 Sudoeste 0 903.9 0.2 79
2019-11-21 07:00:00 5.1 4 Sudeste 18 Sudeste 0 904 0.2 77
2019-11-21 06:00:00 4.9 5 Sudoeste 35 Sudoeste 0 903.8 -0.2 76
2019-11-21 05:00:00 5.5 5 Oeste 24 Oeste 0 903.7 -0.4 77
2019-11-21 04:00:00 5.3 9 Sur 22 Sur 0 903.8 -0.4 78
2019-11-21 03:00:00 5.4 10 Sudoeste 30 Sudoeste 0 904 -0.3 78
2019-11-21 02:00:00 5.6 8 Sur 31 Sur 0 904.1 -0.8 79
2019-11-21 01:00:00 5.5 10 Sudoeste 28 Sudoeste 0 904.2 -0.7 82
2019-11-21 00:00:00 5.5 15 Sudoeste 35 Sur 0 904.3 -0.7 79
2019-11-20 23:00:00 5.3 4 Sudoeste 19 Sur 0 904.9 0.2 83
2019-11-20 22:00:00 5.5 3 Sur 15 Sudeste 0 904.9 0.2 82
2019-11-20 21:00:00 5.5 5 Sudeste 20 Este 0 905 0 84
2019-11-20 20:00:00 5.1 6 Sur 17 Sur 0 904.7 0.1 88
2019-11-20 19:00:00 4.9 6 Sur 23 Sur 0 904.7 -0.3 84
2019-11-20 18:00:00 5.1 10 Sur 20 Sur 0 905 -0.3 78
2019-11-20 17:00:00 6.1 5 Este 22 Sudoeste 0 904.6 -1.3 75
2019-11-20 16:00:00 6.3 10 Sudoeste 29 Sudoeste 0 905 -1.6 76
2019-11-20 15:00:00 6.4 12 Sudoeste 28 Sudoeste 0 905.3 -2.1 77
2019-11-20 14:00:00 6.9 11 Sudoeste -- -- 0 905.9 -1.9 76
2019-11-20 13:00:00 7.7 13 Sudoeste 26 Sur 0 906.6 -1 76
2019-11-20 12:00:00 5.2 7 Sur 22 Sur 0 907.4 -0.1 83
2019-11-20 11:00:00 5.5 9 Sudoeste 25 Sur 0 907.8 0.3 78
2019-11-20 10:00:00 6 14 Sur 43 Sur 0 907.6 0 74
2019-11-20 09:00:00 5.3 3 Sudeste 39 Sur 0 907.5 -0.3 76
2019-11-20 08:00:00 5.6 20 Sur 37 Sur 0 907.5 -1 74
2019-11-20 07:00:00 5.7 17 Sudoeste 36 Sudeste 0 907.6 -1.5 75
2019-11-20 06:00:00 4.5 26 Sudeste 36 Sudeste 0 907.8 -1.9 78
2019-11-20 05:00:00 4.4 12 Sur 29 Sur 0 908.5 -1.5 86
2019-11-20 04:00:00 -0.8 3 Noroeste 9 Oeste 0 909.1 -1.9 90
2019-11-20 03:00:00 -0.7 4 Noroeste 8 Oeste 0 909.7 -1.8 90
2019-11-20 02:00:00 -0.4 4 Noroeste 6 Noroeste 0 910 -2.1 91
2019-11-20 01:00:00 -0.5 5 Noroeste 9 Noroeste 0 911 -1.2 90
2019-11-20 00:00:00 -0.2 3 Noroeste 8 Oeste 0 911.5 -0.7 90
2019-11-19 23:00:00 -0.4 2 Oeste 6 Noroeste 0 912.1 -0.4 89
2019-11-19 22:00:00 0 6 Oeste 7 Oeste 0 912.2 0 86
2019-11-19 21:00:00 0.5 2 Oeste 6 Noroeste 0 912.2 0.3 83
2019-11-19 20:00:00 1 3 Noroeste 8 Noroeste 0 912.5 0.5 85
2019-11-19 19:00:00 2.8 2 Noroeste 14 Oeste 0 912.2 -0.2 76
2019-11-19 18:00:00 4.7 0 Calma 18 Sur 0 911.9 -0.8 63
2019-11-19 17:00:00 6.4 6 Sudoeste 21 Sudoeste 0 912 -1.5 55
2019-11-19 16:00:00 7.2 3 Oeste 15 Sur 0 912.4 -1.8 55
2019-11-19 15:00:00 6.6 2 Noroeste 9 Noroeste 0 912.7 -2.5 61
2019-11-19 14:00:00 5.9 3 Noroeste 7 Norte 0 913.5 -2.2 67
2019-11-19 13:00:00 4.6 2 Norte 6 Noroeste 0 914.2 -1.7 75
2019-11-19 12:00:00 3.6 5 Noroeste 9 Noroeste 0 915.2 -0.9 78
2019-11-19 11:00:00 3.1 0 Calma 5 Sudeste 0 915.7 -0.5 78
2019-11-19 10:00:00 0.7 0 Calma 8 Noroeste 0 915.9 -0.1 94
2019-11-19 09:00:00 -1.9 0 Calma 2 Noroeste 0 916.1 0.2 94
2019-11-19 08:00:00 -3.1 0 Calma -- -- 0 916.2 -0.1 94
2019-11-19 07:00:00 -2.4 0 Calma -- -- 0 916 -0.5 94
2019-11-19 06:00:00 -1.5 0 Calma 5 Oeste 0 915.9 -0.8 94
2019-11-19 05:00:00 -1.2 2 Oeste 6 Noroeste 0 916.3 -0.5 94
2019-11-19 04:00:00 -0.8 2 Noroeste 7 Sudoeste 0 916.5 -0.6 94
2019-11-19 03:00:00 0.6 3 Noroeste 7 Sudoeste 0 916.7 -0.8 94
2019-11-19 02:00:00 1.1 0 Calma 9 Noroeste 0 916.8 -1.1 94
2019-11-19 01:00:00 1.4 3 Sur 7 Sudoeste 0 917.1 -0.6 94
2019-11-19 00:00:00 1.7 3 Noroeste 7 Noroeste 0 917.5 0.4 94
2019-11-18 23:00:00 2.7 3 Sur 6 Sur 0 917.9 0.6 93
2019-11-18 22:00:00 2.4 0 Calma 11 Sudoeste 0 917.7 0.6 93
2019-11-18 21:00:00 2.5 6 Sudoeste 10 Sudoeste 0 917.1 -0.1 93
2019-11-18 20:00:00 2.6 4 Este 9 Este 0 917.3 0.7 93
2019-11-18 19:00:00 2.7 6 Este 11 Este 0.1 917.1 0.9 92
2019-11-18 18:00:00 3.5 2 Sudoeste 6 Norte 0 917.2 1 86
2019-11-18 17:00:00 3.9 3 Nordeste 12 Norte 0.2 916.6 0.5 86
2019-11-18 16:00:00 3.5 8 Norte 15 Noroeste 0.1 916.2 0.1 85
2019-11-18 15:00:00 3.4 7 Norte 17 Noroeste 0 916.2 0 88
2019-11-18 14:00:00 3.5 13 Noroeste 17 Noroeste 0 916.1 0.1 91
2019-11-18 13:00:00 2.9 9 Noroeste 13 Noroeste 0.3 916.1 0.9 93
2019-11-18 12:00:00 0.6 6 Oeste 10 Oeste 2.6 916.2 1.7 93
2019-11-18 11:00:00 1.3 0 Calma 20 Noroeste 2.5 916 2 92
2019-11-18 10:00:00 2.9 13 Noroeste 19 Noroeste 0.1 915.2 1.6 92
2019-11-18 09:00:00 1.7 8 Este 23 Noroeste 0.4 914.5 1.5 94
2019-11-18 08:00:00 0.7 4 Sur 12 Noroeste 1.3 914 1.7 94
2019-11-18 07:00:00 1.1 3 Oeste 8 Oeste 1 913.6 1.9 94
2019-11-18 06:00:00 0.6 4 Sur 8 Sur 2.6 913 1.1 93
2019-11-18 05:00:00 1.7 4 Sudeste 32 Norte 1.9 912.3 1 91
2019-11-18 04:00:00 2.5 17 Noroeste 34 Noroeste 0.5 911.7 0.5 89
2019-11-18 03:00:00 1.3 13 Noroeste 29 Noroeste 2.1 911.9 1.5 90
2019-11-18 02:00:00 2.4 10 Noroeste 28 Norte 0.6 911.3 1.3 90
2019-11-18 01:00:00 3.1 12 Norte 30 Norte 0.4 911.2 1.3 89
2019-11-18 00:00:00 2.9 18 Noroeste 33 Noroeste 1.4 910.4 0.9 87
2019-11-17 23:00:00 2.7 17 Noroeste 26 Noroeste 1.1 910 1.5 89
2019-11-17 22:00:00 2.5 18 Noroeste 28 Noroeste 1.9 909.9 1.6 89
2019-11-17 21:00:00 2.8 18 Noroeste 25 Noroeste 1.7 909.5 1.4 88
2019-11-17 20:00:00 3.8 5 Noroeste 13 Noroeste 0.2 908.5 0.6 89
2019-11-17 19:00:00 4.4 2 Nordeste 13 Norte 0.2 908.3 0.3 88
2019-11-17 18:00:00 5.2 3 Sur 12 Este 0 908.1 0 86
2019-11-17 17:00:00 6 8 Este 12 Este 0 907.9 -0.5 83
2019-11-17 16:00:00 5.9 4 Nordeste 10 Este 0 908 -1.1 89
2019-11-17 15:00:00 6.1 5 Nordeste 12 Norte 0 908.1 -1.3 87
2019-11-17 14:00:00 6 4 Norte 11 Norte 0.1 908.4 -0.8 88
2019-11-17 13:00:00 5.3 5 Nordeste 13 Norte 0 909.1 -0.5 84
2019-11-17 12:00:00 5 3 Norte 8 Nordeste 0 909.4 -0.5 87
2019-11-17 11:00:00 4 2 Noroeste 6 Norte 0 909.2 -0.7 88
2019-11-17 10:00:00 2.7 0 Calma 8 Norte 0 909.6 -0.5 93
2019-11-17 09:00:00 1.5 2 Sudoeste 10 Este 0.3 909.9 -0.6 93
2019-11-17 08:00:00 0.9 3 Nordeste 8 Norte 0 909.9 -1.3 94
2019-11-17 07:00:00 0.6 3 Sudoeste 9 Norte 0 910.1 -1.1 93
2019-11-17 06:00:00 1.4 5 Sur 14 Sur 0 910.5 -1.3 92
2019-11-17 05:00:00 1.6 5 Sur 14 Sudeste 0.1 911.2 -0.7 91
2019-11-17 04:00:00 1.4 2 Sur 5 Sudeste 0.1 911.2 -1.1 93
2019-11-17 03:00:00 1.4 3 Norte 8 Noroeste 0 911.8 -0.8 93
2019-11-17 02:00:00 1.5 2 Sur 5 Oeste 0.1 911.9 -1.2 92
2019-11-17 01:00:00 1.4 2 Sudoeste 6 Oeste 0 912.3 -0.9 93
2019-11-17 00:00:00 1 0 Calma 8 Oeste 0 912.6 -0.3 93
2019-11-16 23:00:00 0.8 4 Noroeste 7 Sur 0 913.1 0.3 93
2019-11-16 22:00:00 0.6 0 Calma 5 Oeste 0 913.2 0.2 93
2019-11-16 21:00:00 0.2 0 Calma 6 Noroeste 0 912.9 0.1 93
2019-11-16 20:00:00 0.9 2 Sur 7 Sur 0 912.8 0.6 90
2019-11-16 19:00:00 1.1 5 Sudoeste 8 Sur 0 913 1 89
2019-11-16 18:00:00 2.4 5 Sur 9 Sur 0 912.8 1.4 87
2019-11-16 17:00:00 3.6 3 Sur 8 Nordeste 0 912.2 0.4 79
2019-11-16 16:00:00 4.4 2 Nordeste 6 Este 0 912 0.2 76
2019-11-16 15:00:00 4.7 2 Sudeste 10 Sudeste 0 911.4 -0.7 71
2019-11-16 14:00:00 4.5 3 Sur 10 Sur 0 911.8 -0.2 72
2019-11-16 13:00:00 3.2 5 Sur 17 Sur 0 911.8 0.3 76
2019-11-16 12:00:00 1.6 4 Oeste 17 Sudoeste 0 912.1 1.1 78
2019-11-16 11:00:00 0.3 9 Sur 17 Sur 0 912 1.6 78
2019-11-16 10:00:00 0.1 8 Sur 21 Sur 0 911.5 1.8 82
2019-11-16 09:00:00 -0.2 6 Sur 14 Sur 0 911 1.4 85
2019-11-16 08:00:00 -1.2 3 Oeste 13 Sur 0 910.4 0.7 85
2019-11-16 07:00:00 -0.2 6 Sur 13 Sur 0 909.7 0.2 83
2019-11-16 06:00:00 0 5 Sur 19 Noroeste 0 909.6 0.2 85
2019-11-16 05:00:00 1.3 12 Noroeste 26 Noroeste 0 909.7 1.1 78
2019-11-16 04:00:00 1.1 12 Noroeste 25 Noroeste 0 909.5 1.3 85
2019-11-16 03:00:00 1.5 13 Noroeste 17 Norte 0 909.4 1.2 89
2019-11-16 02:00:00 -0.4 0 Calma -- -- 0 908.6 0.6 93
2019-11-16 01:00:00 0 0 Calma 9 Oeste 0 908.2 1.4 93
2019-11-16 00:00:00 0.5 6 Oeste 22 Noroeste 0.4 908.2 1.9 93
2019-11-15 23:00:00 0.3 8 Nordeste 14 Nordeste 0.2 908 2.4 94
2019-11-15 22:00:00 0.3 4 Este 11 Este 1.2 906.8 1.9 94
2019-11-15 21:00:00 0.2 5 Este 25 Noroeste 1.1 906.3 2 93
2019-11-15 20:00:00 0.8 4 Norte 15 Este 0 905.6 1.4 94
2019-11-15 19:00:00 0.3 5 Oeste 25 Noroeste 2.9 904.9 1.2 94
2019-11-15 18:00:00 0.6 2 Norte 13 Oeste 0.8 904.3 1.2 94
2019-11-15 17:00:00 0.5 2 Sudeste 10 Sur 1.5 904.2 0.7 94
2019-11-15 16:00:00 0.7 2 Sur 16 Norte 1.7 903.7 0.1 92
2019-11-15 15:00:00 3.3 2 Sur 12 Sur 0.2 903.1 -0.4 86
2019-11-15 14:00:00 1.2 3 Sur 11 Oeste 1.1 903.5 0.1 93
2019-11-15 13:00:00 0.7 8 Oeste 37 Norte 2.4 903.6 0.8 92
2019-11-15 12:00:00 1.6 11 Noroeste 30 Oeste 1.6 903.5 1.2 90
2019-11-15 11:00:00 0.7 3 Norte 27 Noroeste 1.7 903.4 2.3 93
2019-11-15 10:00:00 1.1 4 Oeste 93 Noroeste 1 902.8 2.1 90
2019-11-15 09:00:00 1.6 19 Noroeste 63 Noroeste 0.8 902.3 1.6 85
2019-11-15 08:00:00 2.2 34 Noroeste 80 Noroeste 1.2 901.1 0.4 79
2019-11-15 07:00:00 1.7 30 Noroeste 76 Noroeste 0.7 900.7 -0.3 83
2019-11-15 06:00:00 0.8 9 Sur 77 Sur 0.8 900.7 -0.1 93
2019-11-15 05:00:00 0.4 4 Sur 12 Sudoeste 1.9 900.7 -0.4 93
2019-11-15 04:00:00 0.7 0 Calma 19 Sur 0.9 901 -0.1 93
2019-11-15 03:00:00 0.1 8 Sur 20 Sur 1.2 900.8 -0.1 93
2019-11-15 02:00:00 0.6 4 Sudeste 16 Oeste 0 901.1 0.2 83
2019-11-15 01:00:00 -0.1 5 Sudoeste 14 Sur 0 901.1 0.6 84
2019-11-15 00:00:00 -0.1 7 Sur 11 Sur 0 900.9 0.7 85
2019-11-14 23:00:00 0.7 0 Calma 20 Noroeste 0 900.9 1.2 82
2019-11-14 22:00:00 1.1 9 Noroeste 32 Noroeste 0 900.5 1.7 86
2019-11-14 21:00:00 1.4 14 Noroeste 24 Oeste 0 900.2 2.1 86
2019-11-14 20:00:00 0.9 5 Oeste 17 Norte 0.1 899.7 2.4 92
2019-11-14 19:00:00 0.3 4 Sudeste 15 Norte 1.8 898.8 2.1 92
2019-11-14 18:00:00 2.6 4 Nordeste 25 Noroeste 0.1 898.1 1 82
2019-11-14 17:00:00 4 0 Calma 14 Sur 0 897.3 -0.2 70
2019-11-14 16:00:00 4.2 7 Sur 21 Sudoeste 0 896.7 -1 69
2019-11-14 15:00:00 4.2 5 Sur 37 Sudoeste 0 897.1 -1.2 72
2019-11-14 14:00:00 4.2 15 Sudoeste 36 Sudoeste 0 897.5 -2.2 59
2019-11-14 13:00:00 4.5 15 Sudoeste 32 Sudoeste 0 897.7 -2.1 58
2019-11-14 12:00:00 5.2 18 Sur 32 Sur 0 898.3 -2.7 52
2019-11-14 11:00:00 4.6 13 Sudoeste 31 Sur 0 899.7 -1.4 59
2019-11-14 10:00:00 3.1 3 Este 9 Sur 0 899.8 -1.1 75
2019-11-14 09:00:00 0.9 2 Noroeste 17 Norte 0 901 -0.7 90
2019-11-14 08:00:00 0.3 11 Nordeste 24 Sudoeste 0 901.1 -0.8 87
2019-11-14 07:00:00 1.1 10 Sudoeste 18 Sudoeste 0 900.9 -1.6 78
2019-11-14 06:00:00 1.4 5 Sudeste 26 Noroeste 0 901.7 -1 84
2019-11-14 05:00:00 2 16 Noroeste 27 Noroeste 0 901.9 -1.4 85
2019-11-14 04:00:00 2.2 21 Noroeste 37 Noroeste 0.1 902.5 -1 86
2019-11-14 03:00:00 2.4 10 Oeste 32 Noroeste 2.8 902.7 -1.7 89
2019-11-14 02:00:00 3.5 11 Norte 23 Norte 0.7 903.3 -1.6 86
2019-11-14 01:00:00 5.5 9 Este 17 Sur 0 903.5 -2.1 85
2019-11-14 00:00:00 5 3 Oeste 29 Sur 0 904.4 -1.5 83
2019-11-13 23:00:00 5.7 9 Sur 23 Sur 0 904.9 -2.5 93
2019-11-13 22:00:00 4.1 3 Sudoeste 14 Nordeste 0 905.6 -2.3 94
2019-11-13 21:00:00 5.2 10 Este 16 Este 0 905.9 -2.7 94
2019-11-13 20:00:00 5.4 7 Este 22 Este 0 907.4 -2.4 94
2019-11-13 19:00:00 5.8 10 Este 17 Este 0 907.9 -2.1 92
2019-11-13 18:00:00 6 4 Nordeste 18 Nordeste 0 908.6 -2.1 90
2019-11-13 17:00:00 8.2 6 Nordeste 16 Este 0 909.8 -1.4 82
2019-11-13 16:00:00 8.6 10 Sudeste 16 Este 0 910 -1.8 77
2019-11-13 15:00:00 9 7 Sudeste 15 Sudeste 0 910.7 -1.4 77
2019-11-13 14:00:00 8.5 10 Norte 20 Norte 0.1 911.2 -0.9 75
2019-11-13 13:00:00 8.1 11 Norte 24 Noroeste 0 911.8 0 86
2019-11-13 12:00:00 7.6 13 Noroeste 24 Norte 0 912.1 1.4 85
2019-11-13 11:00:00 8.1 6 Noroeste 15 Noroeste 0.4 912.1 2 89
2019-11-13 10:00:00 5.6 5 Sur 10 Oeste 0.4 911.8 2.6 92
2019-11-13 09:00:00 5.6 5 Sudoeste 21 Norte 0 910.7 3 86
2019-11-13 08:00:00 5.5 9 Norte 23 Noroeste 0.6 910.1 3.5 84
2019-11-13 07:00:00 5.7 12 Noroeste 48 Norte 2.2 909.2 3.1 86
2019-11-13 06:00:00 6.1 13 Noroeste 28 Norte 0.3 907.7 2.8 86
2019-11-13 05:00:00 6.5 10 Norte 21 Noroeste 0.5 906.6 2 91
2019-11-13 04:00:00 6.7 13 Noroeste 22 Noroeste 0.7 906.1 1.4 92
2019-11-13 03:00:00 5.9 3 Noroeste 9 Noroeste 3.3 904.9 -0.5 94
2019-11-13 02:00:00 6.1 3 Oeste 7 Oeste 2.7 904.6 -1.1 94
2019-11-13 01:00:00 6 3 Oeste 7 Norte 1 904.7 -1.9 94
2019-11-13 00:00:00 6.4 0 Calma 12 Sur 1 905.4 -1.5 90
2019-11-12 23:00:00 7.2 8 Sur 22 Sudeste 0.1 905.7 -2 82
2019-11-12 22:00:00 7.7 8 Sur 28 Sudoeste 0.4 906.6 -2 78
2019-11-12 21:00:00 7.6 13 Sudoeste 37 Oeste 0.2 906.9 -2.1 75
2019-11-12 20:00:00 6.5 16 Oeste 35 Oeste 0.3 907.7 -1.8 75
2019-11-12 19:00:00 6.3 10 Sudoeste 24 Sur 0.6 908.6 -1.6 77
2019-11-12 18:00:00 7.2 11 Oeste 36 Sudoeste 0.2 909 -2.2 76
2019-11-12 17:00:00 8 14 Sudoeste 24 Sudoeste 0 909.5 -2.9 68
2019-11-12 16:00:00 9.1 9 Sudoeste 17 Sudoeste 0 910.2 -2.9 63
2019-11-12 15:00:00 9.7 0 Calma 9 Este 0 911.2 -3.1 61
2019-11-12 14:00:00 9.5 6 Sudeste 12 Norte 0 912.4 -2.4 59
2019-11-12 13:00:00 9.2 3 Sudeste 17 Sudeste 0 913.1 -2 62
2019-11-12 12:00:00 7.8 4 Sudeste 15 Sur 0 914.3 -1.3 67
2019-11-12 11:00:00 6.3 8 Sudeste 15 Sudeste 0.1 914.8 -0.6 75
2019-11-12 10:00:00 4.4 2 Sur 14 Sur 0 915.1 -0.3 91
2019-11-12 09:00:00 3.2 0 Calma 9 Sur 0 915.6 0.3 93
2019-11-12 08:00:00 2.8 3 Sur 10 Sur 0 915.4 -0.5 92
2019-11-12 07:00:00 2.7 6 Sur 9 Sur 0 915.4 -0.9 92
2019-11-12 06:00:00 1.7 0 Calma 8 Norte 0 915.3 -1.3 92
2019-11-12 05:00:00 2.7 5 Sur 9 Sur 0 915.9 -1 93
2019-11-12 04:00:00 2.6 3 Oeste 8 Noroeste 0 916.3 -1.3 91
2019-11-12 03:00:00 3.3 2 Sudoeste 13 Sur 0 916.6 -1.5 90
2019-11-12 02:00:00 4.1 5 Noroeste 16 Noroeste 0 916.9 -1.5 87
2019-11-12 01:00:00 3.5 0 Calma 7 Norte 0 917.6 -0.9 86
2019-11-12 00:00:00 4.1 9 Norte 20 Norte 0 918.1 -0.1 80
2019-11-11 23:00:00 4.1 13 Norte 22 Norte 0 918.4 -0.2 82
2019-11-11 22:00:00 4.3 15 Norte 30 Noroeste 0 918.5 0 83
2019-11-11 21:00:00 3.9 18 Noroeste 25 Noroeste 0.6 918.2 0.7 88
2019-11-11 20:00:00 4.5 14 Norte 26 Noroeste 0.3 918.6 1.1 86
2019-11-11 19:00:00 4.6 21 Noroeste 35 Noroeste 0.5 918.5 1.3 87
2019-11-11 18:00:00 4.8 10 Noroeste 29 Noroeste 0.7 917.5 1.1 89
2019-11-11 17:00:00 5.2 10 Noroeste 36 Norte 0.3 917.5 1.3 88
2019-11-11 16:00:00 5.7 21 Noroeste 42 Noroeste 0.8 917.2 1.5 86
2019-11-11 15:00:00 5.8 22 Noroeste 43 Noroeste 0.4 916.4 0.5 86
2019-11-11 14:00:00 6.2 19 Noroeste 50 Noroeste 0.6 916.2 1.2 78
2019-11-11 13:00:00 6.7 24 Norte 49 Noroeste 0.4 915.7 1 86
2019-11-11 12:00:00 7.3 34 Noroeste 59 Noroeste 0.1 915.9 1.2 86
2019-11-11 11:00:00 8.7 28 Noroeste 51 Noroeste 0.6 915 0.4 89
2019-11-11 10:00:00 4.3 4 Este 27 Sudeste 0.3 914.7 0.1 93
2019-11-11 09:00:00 3.3 0 Calma 9 Sudeste 0.2 914.7 -0.5 93
2019-11-11 08:00:00 3.3 2 Sur 18 Sudeste 0 914.6 -1.2 91
2019-11-11 07:00:00 3.1 4 Este 10 Sudeste 0 914.6 -1.4 94
2019-11-11 06:00:00 3 0 Calma 7 Sur 0.1 915.2 -1 93
2019-11-11 05:00:00 3 2 Sudoeste 7 Sudoeste 0 915.8 -0.8 92
2019-11-11 04:00:00 2.8 2 Noroeste 8 Oeste 0 916 -0.7 92
2019-11-11 03:00:00 2.5 4 Sudoeste 12 Sudoeste 0 916.2 -1 90
2019-11-11 02:00:00 3 7 Sur 15 Sudeste 0 916.6 -0.5 87
2019-11-11 01:00:00 2.7 6 Sur 13 Sur 0 916.7 -0.4 89
2019-11-11 00:00:00 2.7 5 Sur 13 Sur 0 917.2 0.6 88